Flight Track Log - Related Links

Times and Time Zones

All times are in EDT time to prevent confusion due to time zone crossing. See the KAP910 flight status page for this flight to view local times or setup timezone preferences in your user account.

Time Position Orientation Groundspeed Altitude Reporting Facility
EDT Latitude Longitude Course Direction KTS MPH feet Rate Location/Type
04:09PM 41.3810 -70.1156 342° North  Level FlightAware Approximate
04:10PM 41.3965 -70.1246 336° Northwest  Level FlightAware Approximate
04:11PM 41.4169 -70.1368 336° Northwest  Level FlightAware Approximate
04:12PM 41.4374 -70.1491 336° Northwest  Level FlightAware Approximate
04:13PM 41.4578 -70.1613 336° Northwest  Level FlightAware Approximate
04:14PM 41.4783 -70.1733 337° Northwest  Level FlightAware Approximate
04:15PM 41.4990 -70.1851 337° Northwest  Level FlightAware Approximate
04:16PM 41.5196 -70.1969 337° Northwest  Level FlightAware Approximate
04:17PM 41.5401 -70.2086 337° Northwest  Level FlightAware Approximate
04:18PM 41.5607 -70.2204 337° Northwest  Level FlightAware Approximate
04:19PM 41.5813 -70.2322 337° Northwest  Level FlightAware Approximate
04:20PM 41.6027 -70.2411 343° North  Level FlightAware Approximate
04:21PM 41.6242 -70.2497 343° North  Level FlightAware Approximate
04:22PM 41.6457 -70.2583 343° North  Level FlightAware Approximate
04:23PM 41.6667 -70.2667 343° North  Level FlightAware Approximate
04:24PM 41.6693 -70.2804 343° North  Level Estimated
04:25PM 41.6693 -70.2804 343° North  Level Estimated
04:26PM 41.6693 -70.2804 343° North  Level Estimated
04:27PM 41.6693 -70.2804 343° North  Level Estimated
04:28PM 41.6693 -70.2804 343° North  Level Estimated
04:29PM 41.6693 -70.2804 343° North  Level Estimated

Login

Don't have an account? Register now (free) for customized features, flight alerts, and more!